Time;durP1;ratioP1;P1;durP2;ratioP2;P2;SDS_P1;SDS_P2;PMS_P1;PMS_P2;Temp;Humidity;BMP_temperature;BMP_pressure;BME280_temperature;BME280_humidity;BME280_pressure;Samples;Min_cycle;Max_cycle;Signal;HPM_P1;HPM_P2
2023/07/14 00:01:46;;;;;;;7.47;3.88;;;;;;;16.95;70.88;101822.34;7382484;19;19949;-69
2023/07/14 00:04:18;;;;;;;7.43;3.83;;;;;;;16.93;71.01;101824.41;7385896;19;19955;-69
2023/07/14 00:06:48;;;;;;;6.97;3.33;;;;;;;16.90;70.89;101822.94;7383483;19;19918;-69
2023/07/14 00:09:22;;;;;;;4.90;3.08;;;;;;;16.88;71.37;101818.72;7382934;19;19922;-68
2023/07/14 00:11:54;;;;;;;5.40;3.05;;;;;;;16.85;71.38;101817.22;7384248;19;19919;-69
2023/07/14 00:14:23;;;;;;;5.60;3.45;;;;;;;16.84;71.28;101815.53;7386522;19;19918;-69
2023/07/14 00:16:52;;;;;;;6.15;3.50;;;;;;;16.84;71.54;101814.69;7382901;19;19926;-69
2023/07/14 00:19:22;;;;;;;6.50;3.28;;;;;;;16.83;71.21;101811.13;7382571;19;19931;-70
2023/07/14 00:21:51;;;;;;;6.15;3.42;;;;;;;16.79;71.43;101816.13;7382992;19;19936;-70
2023/07/14 00:24:23;;;;;;;5.18;3.17;;;;;;;16.73;71.41;101811.47;7381137;19;19947;-69
2023/07/14 00:26:59;;;;;;;4.65;3.40;;;;;;;16.67;72.26;101814.13;7383702;19;19938;-70
2023/07/14 00:29:37;;;;;;;7.78;3.80;;;;;;;16.59;72.28;101806.09;7382790;19;19958;-69
2023/07/14 00:32:13;;;;;;;6.70;3.30;;;;;;;16.58;72.26;101801.66;7382268;19;19930;-68
2023/07/14 00:34:42;;;;;;;6.43;3.53;;;;;;;16.59;71.43;101806.09;7382954;19;19918;-70
2023/07/14 00:37:11;;;;;;;8.60;3.08;;;;;;;16.52;71.77;101810.59;7386278;19;20340;-68
2023/07/14 00:39:40;;;;;;;11.57;3.92;;;;;;;16.48;71.76;101812.84;7381386;19;19934;-69
2023/07/14 00:42:16;;;;;;;7.03;3.70;;;;;;;16.43;72.36;101814.47;7380954;19;19929;-69
2023/07/14 00:44:45;;;;;;;4.85;2.85;;;;;;;16.44;71.91;101813.44;7379929;19;20301;-69
2023/07/14 00:47:22;;;;;;;5.78;3.55;;;;;;;16.44;72.69;101808.81;7384215;19;19919;-69
2023/07/14 00:49:53;;;;;;;7.95;3.20;;;;;;;16.43;72.10;101803.59;7381005;19;19919;-69
2023/07/14 00:52:33;;;;;;;6.20;3.88;;;;;;;16.39;72.57;101805.84;7383464;19;19919;-69
2023/07/14 00:55:02;;;;;;;4.53;3.08;;;;;;;16.36;72.55;101800.78;7379773;19;20335;-69
2023/07/14 00:57:36;;;;;;;4.20;3.13;;;;;;;16.34;72.45;101792.84;7381157;19;20274;-69
2023/07/14 01:00:23;;;;;;;5.90;3.38;;;;;;;16.29;73.28;101789.00;7381672;19;19914;-70
2023/07/14 01:02:52;;;;;;;5.93;3.22;;;;;;;16.32;72.47;101792.16;7382319;19;20122;-70
2023/07/14 01:05:21;;;;;;;6.28;3.38;;;;;;;16.32;72.49;101788.59;7381391;19;19922;-69
2023/07/14 01:07:51;;;;;;;4.78;3.63;;;;;;;16.30;72.59;101790.69;7381404;19;19919;-70
2023/07/14 01:10:23;;;;;;;5.57;3.83;;;;;;;16.23;72.71;101790.59;7379524;19;19965;-70
2023/07/14 01:13:00;;;;;;;12.30;4.38;;;;;;;16.17;73.04;101788.66;7382181;19;19937;-69
2023/07/14 01:15:29;;;;;;;11.27;4.35;;;;;;;16.13;72.99;101794.66;7384061;19;19922;-70
2023/07/14 01:17:58;;;;;;;6.30;4.68;;;;;;;16.06;73.21;101791.84;7382864;19;19933;-70
2023/07/14 01:20:27;;;;;;;6.22;4.70;;;;;;;15.99;73.47;101792.81;7381041;19;19930;-70
2023/07/14 01:23:14;;;;;;;8.85;4.80;;;;;;;15.89;74.10;101793.09;7379977;19;19922;-69
2023/07/14 01:25:57;;;;;;;7.72;4.18;;;;;;;15.87;74.60;101789.75;7379656;19;19940;-70
2023/07/14 01:28:28;;;;;;;6.82;4.38;;;;;;;15.92;73.80;101790.00;7381373;19;19947;-70
2023/07/14 01:30:57;;;;;;;6.93;4.15;;;;;;;15.93;73.58;101786.25;7378797;19;20347;-68
2023/07/14 01:33:26;;;;;;;6.07;4.10;;;;;;;15.93;73.44;101788.13;7380541;19;20260;-68
2023/07/14 01:35:57;;;;;;;10.48;4.60;;;;;;;15.93;73.58;101788.97;7383094;19;20440;-68
2023/07/14 01:38:26;;;;;;;8.38;4.60;;;;;;;15.87;73.53;101784.31;7379977;19;19930;-67
2023/07/14 01:40:55;;;;;;;9.25;4.68;;;;;;;15.83;73.57;101781.09;7380137;19;20359;-67
2023/07/14 01:43:28;;;;;;;8.80;4.53;;;;;;;15.78;74.07;101786.28;7380980;19;19926;-67
2023/07/14 01:46:00;;;;;;;10.52;4.95;;;;;;;15.75;73.99;101792.06;7378607;19;19930;-66
2023/07/14 01:48:33;;;;;;;7.47;4.75;;;;;;;15.72;74.29;101787.03;7380301;19;19961;-67
2023/07/14 01:51:06;;;;;;;7.03;4.80;;;;;;;15.68;74.20;101788.44;7378250;19;20624;-67
2023/07/14 01:53:41;;;;;;;6.60;4.68;;;;;;;15.64;74.87;101786.28;7379663;19;19922;-67
2023/07/14 01:56:14;;;;;;;10.75;5.20;;;;;;;15.65;74.37;101798.84;7378775;19;19929;-67
2023/07/14 01:58:56;;;;;;;11.45;5.25;;;;;;;15.59;75.16;101797.72;7380347;19;19918;-66
2023/07/14 02:01:27;;;;;;;8.75;4.72;;;;;;;15.60;74.33;101795.84;7386914;19;20381;-67
2023/07/14 02:03:56;;;;;;;10.68;5.82;;;;;;;15.59;74.36;101795.00;7385377;19;19922;-67
2023/07/14 02:06:25;;;;;;;9.38;5.20;;;;;;;15.59;74.48;101786.00;7383464;19;19930;-67
2023/07/14 02:08:55;;;;;;;6.93;5.40;;;;;;;15.59;74.43;101783.28;7386121;19;19960;-66
2023/07/14 02:11:26;;;;;;;7.43;5.15;;;;;;;15.54;74.51;101785.72;7384925;19;19982;-66
2023/07/14 02:13:59;;;;;;;8.77;5.13;;;;;;;15.49;74.92;101785.41;7389726;19;19938;-68
2023/07/14 02:16:28;;;;;;;10.50;5.60;;;;;;;15.45;74.36;101783.06;7386167;19;20309;-67
2023/07/14 02:18:58;;;;;;;9.90;5.13;;;;;;;15.41;74.82;101776.31;7385002;19;19968;-68
2023/07/14 02:21:32;;;;;;;7.88;5.50;;;;;;;15.32;75.15;101774.72;7386272;19;19925;-66
2023/07/14 02:24:04;;;;;;;7.07;4.97;;;;;;;15.29;74.90;101772.38;7384280;19;19929;-66
2023/07/14 02:26:36;;;;;;;6.68;5.22;;;;;;;15.24;75.15;101777.53;7382538;19;20519;-67
2023/07/14 02:29:11;;;;;;;7.82;5.40;;;;;;;15.22;74.91;101779.59;7381048;19;19971;-68
2023/07/14 02:31:45;;;;;;;8.05;5.32;;;;;;;15.20;75.34;101772.63;7379599;19;20805;-66
2023/07/14 02:34:16;;;;;;;10.38;5.88;;;;;;;15.14;74.97;101774.25;7378268;19;19943;-67
2023/07/14 02:36:58;;;;;;;10.27;5.53;;;;;;;15.07;75.93;101781.41;7385918;19;19954;-67
2023/07/14 02:39:27;;;;;;;10.10;5.97;;;;;;;15.12;75.33;101776.28;7383560;19;19922;-67
2023/07/14 02:41:59;;;;;;;10.15;5.72;;;;;;;15.12;75.26;101781.72;7386950;19;19947;-67
2023/07/14 02:44:36;;;;;;;13.05;6.65;;;;;;;15.08;75.35;101774.13;7384121;19;19918;-67
2023/07/14 02:47:10;;;;;;;7.55;5.38;;;;;;;15.08;75.39;101777.69;7385318;19;19938;-67
2023/07/14 02:49:38;;;;;;;9.43;6.43;;;;;;;15.04;76.37;101776.38;7383996;19;19955;-67
2023/07/14 02:52:08;;;;;;;11.15;6.45;;;;;;;15.03;75.91;101780.09;7383591;19;20325;-67
2023/07/14 02:54:37;;;;;;;10.70;6.70;;;;;;;15.04;75.82;101770.94;7385903;19;19954;-67
2023/07/14 02:57:06;;;;;;;14.00;7.60;;;;;;;15.04;75.96;101773.66;7383284;19;20404;-67
2023/07/14 02:59:37;;;;;;;11.63;6.43;;;;;;;15.05;76.04;101766.38;7384579;19;19923;-67
2023/07/14 03:02:04;;;;;;;10.77;6.28;;;;;;;15.05;75.99;101771.78;7384523;19;20332;-67
2023/07/14 03:04:34;;;;;;;12.48;7.57;;;;;;;15.07;75.83;101770.56;7384516;19;20420;-67
2023/07/14 03:07:03;;;;;;;11.93;6.88;;;;;;;15.07;75.77;101773.28;7384565;19;19919;-67
2023/07/14 03:09:32;;;;;;;10.88;7.95;;;;;;;15.09;76.18;101770.38;7382076;19;19944;-67
2023/07/14 03:12:00;;;;;;;13.55;7.68;;;;;;;15.08;75.83;101769.53;7379002;19;19943;-67
2023/07/14 03:14:29;;;;;;;12.90;6.70;;;;;;;15.05;75.79;101764.50;7386781;19;19919;-66
2023/07/14 03:17:00;;;;;;;10.88;7.32;;;;;;;15.03;75.98;101766.53;7384966;19;20396;-67
2023/07/14 03:19:29;;;;;;;11.60;7.15;;;;;;;14.99;76.39;101768.78;7382510;19;19929;-66
2023/07/14 03:21:58;;;;;;;15.05;7.53;;;;;;;14.97;75.81;101770.00;7380850;19;19926;-67
2023/07/14 03:24:27;;;;;;;16.70;7.57;;;;;;;14.93;75.98;101774.09;7379305;19;19922;-66
2023/07/14 03:26:55;;;;;;;13.88;7.05;;;;;;;14.85;76.33;101766.88;7384974;19;19926;-67
2023/07/14 03:29:24;;;;;;;14.25;8.70;;;;;;;14.80;77.20;101765.72;7380239;19;19923;-66
2023/07/14 03:31:53;;;;;;;14.07;7.18;;;;;;;14.77;76.90;101764.22;7383430;19;19939;-66
2023/07/14 03:34:25;;;;;;;12.40;6.88;;;;;;;14.76;76.96;101754.41;7379394;19;19974;-65
2023/07/14 03:36:54;;;;;;;13.18;6.60;;;;;;;14.76;76.58;101764.41;7386831;19;20136;-66
2023/07/14 03:39:26;;;;;;;13.35;7.82;;;;;;;14.74;77.05;101764.59;7379297;19;19930;-66
2023/07/14 03:41:55;;;;;;;14.35;7.28;;;;;;;14.71;76.87;101759.53;7382199;19;19985;-67
2023/07/14 03:44:25;;;;;;;13.10;6.82;;;;;;;14.70;77.25;101767.84;7382959;19;20305;-66
2023/07/14 03:46:55;;;;;;;12.48;7.70;;;;;;;14.69;77.57;101769.72;7383327;19;19947;-65
2023/07/14 03:49:26;;;;;;;15.23;7.80;;;;;;;14.69;77.74;101763.44;7379827;19;19919;-68
2023/07/14 03:51:55;;;;;;;16.88;7.70;;;;;;;14.70;77.71;101768.72;7382214;19;19923;-67
2023/07/14 03:54:24;;;;;;;13.90;7.40;;;;;;;14.74;77.25;101771.91;7379346;19;19910;-67
2023/07/14 03:56:54;;;;;;;13.43;7.72;;;;;;;14.75;77.33;101768.16;7381689;19;19947;-66
2023/07/14 03:59:23;;;;;;;15.90;7.55;;;;;;;14.77;77.79;101763.38;7380713;19;20508;-66
2023/07/14 04:01:52;;;;;;;11.90;7.43;;;;;;;14.78;77.41;101763.22;7381991;19;19943;-66
2023/07/14 04:04:22;;;;;;;12.88;7.18;;;;;;;14.80;77.22;101763.00;7381659;19;19933;-66
2023/07/14 04:06:54;;;;;;;12.98;8.20;;;;;;;14.79;77.45;101761.34;7382211;19;19922;-66
2023/07/14 04:09:23;;;;;;;10.57;7.28;;;;;;;14.79;77.67;101761.34;7383559;19;19925;-65
2023/07/14 04:11:52;;;;;;;10.85;6.82;;;;;;;14.79;77.36;101766.78;7381217;19;19923;-66
2023/07/14 04:14:21;;;;;;;10.55;6.90;;;;;;;14.80;77.42;101769.28;7386652;19;20276;-65
2023/07/14 04:16:50;;;;;;;9.98;7.35;;;;;;;14.79;77.26;101769.47;7381445;19;19922;-66
2023/07/14 04:19:18;;;;;;;12.18;8.07;;;;;;;14.81;77.37;101765.53;7380851;19;19919;-66
2023/07/14 04:21:49;;;;;;;11.98;7.57;;;;;;;14.83;77.41;101768.09;7384068;19;19918;-66
2023/07/14 04:24:21;;;;;;;13.02;6.95;;;;;;;14.82;77.53;101769.09;7379909;19;19915;-67
2023/07/14 04:26:49;;;;;;;12.57;7.90;;;;;;;14.84;77.05;101765.16;7380918;19;19926;-68
2023/07/14 04:29:18;;;;;;;11.70;6.13;;;;;;;14.86;76.99;101773.13;7381882;19;19919;-65
2023/07/14 04:31:47;;;;;;;14.18;7.22;;;;;;;14.86;76.89;101768.56;7380282;19;22452;-68
2023/07/14 04:34:16;;;;;;;14.20;7.75;;;;;;;14.87;77.29;101767.53;7381611;19;19922;-65
2023/07/14 04:36:46;;;;;;;12.05;7.60;;;;;;;14.86;77.04;101776.69;7387559;19;19914;-66
2023/07/14 04:39:15;;;;;;;11.23;7.30;;;;;;;14.84;77.13;101772.50;7381536;19;19937;-67
2023/07/14 04:41:46;;;;;;;18.10;7.40;;;;;;;14.81;77.46;101764.69;7381554;19;20296;-67
2023/07/14 04:44:17;;;;;;;10.75;7.60;;;;;;;14.82;77.28;101766.41;7381533;19;19919;-67
2023/07/14 04:46:48;;;;;;;11.00;7.43;;;;;;;14.88;77.21;101762.97;7380725;19;19915;-66
2023/07/14 04:49:18;;;;;;;12.15;7.82;;;;;;;14.90;77.05;101764.44;7380630;19;19929;-68
2023/07/14 04:51:47;;;;;;;12.40;6.97;;;;;;;14.92;77.43;101762.41;7382004;19;19919;-67
2023/07/14 04:54:16;;;;;;;14.90;7.75;;;;;;;14.92;77.43;101759.69;7382140;19;19932;-66
2023/07/14 04:56:47;;;;;;;10.63;6.28;;;;;;;14.96;77.29;101760.16;7379711;19;19914;-66
2023/07/14 04:59:16;;;;;;;12.57;7.00;;;;;;;14.97;77.22;101757.25;7380148;19;19923;-66
2023/07/14 05:01:45;;;;;;;14.52;7.03;;;;;;;15.01;77.11;101760.47;7378745;19;19918;-66
2023/07/14 05:04:14;;;;;;;8.88;6.03;;;;;;;15.03;77.43;101758.41;7377758;19;19926;-67
2023/07/14 05:06:43;;;;;;;13.98;6.18;;;;;;;15.04;77.85;101748.38;7380001;19;20258;-66
2023/07/14 05:09:12;;;;;;;9.40;6.40;;;;;;;15.11;77.25;101739.31;7381040;19;19929;-66
2023/07/14 05:11:41;;;;;;;8.27;5.88;;;;;;;15.17;77.36;101743.16;7380031;19;19937;-66
2023/07/14 05:14:13;;;;;;;11.25;5.00;;;;;;;15.22;77.37;101736.16;7384760;19;22520;-66
2023/07/14 05:16:41;;;;;;;12.90;6.72;;;;;;;15.26;77.67;101751.03;7382764;19;19947;-66
2023/07/14 05:19:10;;;;;;;11.27;5.95;;;;;;;15.31;77.41;101742.34;7380679;19;20229;-66
2023/07/14 05:21:39;;;;;;;12.80;6.18;;;;;;;15.33;77.50;101742.97;7380718;19;19947;-66
2023/07/14 05:24:08;;;;;;;11.40;6.25;;;;;;;15.35;77.79;101743.66;7378369;19;19930;-66
2023/07/14 05:26:37;;;;;;;9.80;5.75;;;;;;;15.40;77.65;101744.75;7379441;19;20380;-67
2023/07/14 05:29:08;;;;;;;15.07;6.20;;;;;;;15.44;77.49;101748.78;7379520;19;19934;-67
2023/07/14 05:31:40;;;;;;;9.73;5.78;;;;;;;15.51;77.22;101742.63;7379244;19;20262;-67
2023/07/14 05:34:09;;;;;;;10.88;5.70;;;;;;;15.57;77.10;101741.91;7380624;19;19978;-67
2023/07/14 05:36:38;;;;;;;10.80;5.55;;;;;;;15.61;76.98;101744.06;7390601;19;19932;-68
2023/07/14 05:39:06;;;;;;;9.75;5.32;;;;;;;15.62;76.85;101740.28;7385857;19;20674;-68
2023/07/14 05:41:35;;;;;;;8.98;5.45;;;;;;;15.65;77.19;101739.94;7387479;19;19950;-68
2023/07/14 05:44:05;;;;;;;9.68;5.88;;;;;;;15.69;76.88;101743.09;7383976;19;19918;-67
2023/07/14 05:46:34;;;;;;;11.80;5.60;;;;;;;15.69;78.10;101738.50;7388799;19;20629;-67
2023/07/14 05:49:05;;;;;;;8.88;5.68;;;;;;;15.76;77.75;101735.88;7353952;19;19929;-68
2023/07/14 05:51:35;;;;;;;6.93;5.22;;;;;;;15.82;77.36;101735.13;7353608;19;19923;-67
2023/07/14 05:54:04;;;;;;;7.43;4.70;;;;;;;15.89;77.13;101741.47;7352646;19;20046;-69
2023/07/14 05:56:32;;;;;;;8.85;5.20;;;;;;;15.91;76.74;101739.41;7348861;19;19951;-67
2023/07/14 05:59:01;;;;;;;9.95;4.88;;;;;;;15.94;77.57;101736.31;7349713;19;20300;-67
2023/07/14 06:01:32;;;;;;;9.15;5.60;;;;;;;15.99;77.35;101733.03;7357655;19;19929;-67
2023/07/14 06:04:00;;;;;;;9.75;5.22;;;;;;;16.06;76.99;101740.22;7376533;19;20333;-68
2023/07/14 06:06:32;;;;;;;8.95;4.82;;;;;;;16.11;77.09;101731.47;7378978;19;19923;-68
2023/07/14 06:09:01;;;;;;;9.95;5.53;;;;;;;16.15;76.79;101733.63;7381779;19;19919;-67
2023/07/14 06:11:30;;;;;;;12.75;5.18;;;;;;;16.19;76.54;101732.19;7378772;19;19926;-67
2023/07/14 06:13:59;;;;;;;8.23;5.03;;;;;;;16.22;76.29;101729.09;7389159;19;19931;-67
2023/07/14 06:16:27;;;;;;;9.07;5.13;;;;;;;16.25;76.34;101725.16;7380562;19;19923;-67
2023/07/14 06:18:56;;;;;;;7.63;4.43;;;;;;;16.30;75.90;101725.44;7381315;19;20264;-67
2023/07/14 06:21:25;;;;;;;7.05;4.93;;;;;;;16.35;75.71;101722.97;7384840;19;20539;-67
2023/07/14 06:23:56;;;;;;;9.15;4.97;;;;;;;16.43;75.85;101719.28;7380830;19;20448;-67
2023/07/14 06:26:25;;;;;;;6.82;5.32;;;;;;;16.55;75.69;101723.16;7384312;19;19945;-67
2023/07/14 06:28:54;;;;;;;6.55;4.88;;;;;;;16.66;75.04;101717.19;7379504;19;19933;-67
2023/07/14 06:31:28;;;;;;;9.75;5.32;;;;;;;16.79;75.42;101720.03;7384823;19;19961;-67
2023/07/14 06:33:57;;;;;;;7.75;4.95;;;;;;;16.93;75.12;101721.81;7381574;19;19929;-67
2023/07/14 06:36:26;;;;;;;8.60;4.53;;;;;;;17.06;75.21;101715.63;7386510;19;19928;-67
2023/07/14 06:38:57;;;;;;;9.30;5.22;;;;;;;17.16;73.94;101716.97;7383552;19;19923;-67
2023/07/14 06:41:26;;;;;;;8.98;4.35;;;;;;;17.22;73.75;101720.75;7379431;19;19929;-66
2023/07/14 06:43:55;;;;;;;6.28;4.63;;;;;;;17.24;73.80;101719.53;7380374;19;19926;-68
2023/07/14 06:46:24;;;;;;;11.20;5.03;;;;;;;17.23;73.85;101717.84;7381535;19;19934;-68
2023/07/14 06:49:00;;;;;;;12.15;4.85;;;;;;;17.29;73.93;101712.66;7380696;19;20293;-69
2023/07/14 06:51:28;;;;;;;8.00;4.20;;;;;;;17.34;73.56;101710.16;7380030;19;19937;-67
2023/07/14 06:54:01;;;;;;;10.98;4.22;;;;;;;17.41;73.80;101709.16;7380226;19;20261;-67
2023/07/14 06:56:30;;;;;;;8.90;4.50;;;;;;;17.42;73.12;101715.44;7382621;19;19926;-67
2023/07/14 06:58:59;;;;;;;8.63;4.18;;;;;;;17.41;73.36;101709.16;7380714;19;19919;-66
2023/07/14 07:01:27;;;;;;;12.30;4.82;;;;;;;17.42;73.21;101712.72;7382169;19;20020;-67
2023/07/14 07:03:58;;;;;;;6.90;4.20;;;;;;;17.44;72.47;101708.75;7382375;19;19947;-67
2023/07/14 07:06:27;;;;;;;7.00;3.65;;;;;;;17.51;72.41;101706.06;7385146;19;20802;-67
2023/07/14 07:09:08;;;;;;;7.55;3.97;;;;;;;17.57;72.97;101716.13;7381920;19;19926;-67
2023/07/14 07:11:36;;;;;;;8.80;4.32;;;;;;;17.61;72.34;101718.28;7382045;19;19991;-66
2023/07/14 07:14:05;;;;;;;9.40;5.15;;;;;;;17.62;72.54;101716.41;7379926;19;20587;-68
2023/07/14 07:16:34;;;;;;;7.50;3.60;;;;;;;17.63;72.10;101709.94;7379545;19;19926;-68
2023/07/14 07:19:03;;;;;;;7.68;3.72;;;;;;;17.72;72.47;101716.88;7378168;19;19922;-67
2023/07/14 07:21:32;;;;;;;10.30;5.10;;;;;;;17.84;72.66;101709.81;7378479;19;20337;-68
2023/07/14 07:24:01;;;;;;;8.63;4.65;;;;;;;17.96;72.20;101712.75;7380406;19;19934;-67
2023/07/14 07:26:32;;;;;;;8.85;3.70;;;;;;;18.00;71.54;101712.16;7384607;19;21119;-67
2023/07/14 07:29:01;;;;;;;7.22;3.50;;;;;;;18.07;71.65;101707.56;7382270;19;19922;-68
2023/07/14 07:31:30;;;;;;;7.10;4.30;;;;;;;18.12;71.09;101696.06;7383136;19;19982;-68
2023/07/14 07:33:58;;;;;;;7.70;4.22;;;;;;;18.16;70.87;101704.66;7380512;19;19933;-68
2023/07/14 07:36:27;;;;;;;10.00;4.32;;;;;;;18.21;70.83;101704.88;7388609;19;19947;-66
2023/07/14 07:38:56;;;;;;;8.18;4.20;;;;;;;18.21;71.14;101697.50;7379967;19;19969;-67
2023/07/14 07:41:27;;;;;;;5.22;3.83;;;;;;;18.19;70.25;101690.59;7381459;19;20268;-67
2023/07/14 07:43:59;;;;;;;9.80;4.35;;;;;;;18.15;70.97;101692.91;7383319;19;20225;-68
2023/07/14 07:46:32;;;;;;;8.38;4.40;;;;;;;18.09;71.33;101697.28;7382086;19;20267;-69
2023/07/14 07:49:01;;;;;;;7.70;3.67;;;;;;;18.05;71.30;101685.13;7369756;19;20008;-69
2023/07/14 07:51:29;;;;;;;8.70;4.25;;;;;;;18.04;71.56;101682.59;7375663;19;20352;-68
2023/07/14 07:53:59;;;;;;;11.13;4.72;;;;;;;18.04;71.53;101677.97;7373776;19;19915;-68
2023/07/14 07:56:28;;;;;;;7.25;3.95;;;;;;;18.07;71.01;101677.59;7380815;19;19929;-67
2023/07/14 07:58:59;;;;;;;7.90;3.45;;;;;;;18.13;71.36;101674.00;7367017;19;19960;-67
2023/07/14 08:01:28;;;;;;;8.80;3.72;;;;;;;18.21;70.98;101666.69;7382915;19;20316;-67
2023/07/14 08:03:57;;;;;;;7.85;3.38;;;;;;;18.30;71.23;101670.88;7377438;19;19926;-67
2023/07/14 08:06:27;;;;;;;6.93;3.10;;;;;;;18.38;69.99;101667.97;7384086;19;19945;-68
2023/07/14 08:08:55;;;;;;;6.80;2.88;;;;;;;18.43;69.88;101666.28;7383127;19;21801;-68
2023/07/14 08:11:24;;;;;;;6.18;2.60;;;;;;;18.51;69.54;101668.78;7382052;19;19929;-66
2023/07/14 08:13:53;;;;;;;8.23;2.97;;;;;;;18.61;69.33;101665.69;7384834;19;19927;-68
2023/07/14 08:16:25;;;;;;;4.38;3.10;;;;;;;18.67;68.59;101655.81;7381669;19;19918;-68
2023/07/14 08:18:54;;;;;;;7.25;2.67;;;;;;;18.74;69.02;101657.50;7379224;19;19918;-67
2023/07/14 08:21:42;;;;;;;;;;;;;;;18.73;67.99;101658.53;7379598;19;19918;-68
2023/07/14 08:24:12;;;;;;;5.25;2.08;;;;;;;18.94;67.96;101652.84;7379236;19;19918;-68
2023/07/14 08:27:01;;;;;;;4.82;3.60;;;;;;;19.07;68.05;101648.41;7382328;19;19914;-68
2023/07/14 08:29:30;;;;;;;5.53;2.03;;;;;;;19.19;66.63;101649.44;7378760;19;19922;-68
2023/07/14 08:32:01;;;;;;;6.40;2.92;;;;;;;19.27;63.84;101646.47;7378897;19;19926;-68
2023/07/14 08:34:30;;;;;;;4.43;2.80;;;;;;;19.32;64.30;101652.97;7378810;19;19923;-68
2023/07/14 08:36:59;;;;;;;4.22;2.50;;;;;;;19.37;64.17;101646.84;7383428;19;19922;-68
2023/07/14 08:39:29;;;;;;;20.48;10.85;;;;;;;19.47;63.77;101644.50;7379366;19;19947;-67
2023/07/14 08:42:05;;;;;;;6.60;3.00;;;;;;;19.62;62.87;101646.97;7381037;19;19915;-68
2023/07/14 08:44:56;;;;;;;7.20;3.80;;;;;;;19.72;63.17;101645.44;7380221;19;19938;-68
2023/07/14 08:47:33;;;;;;;13.90;7.05;;;;;;;19.97;62.42;101647.44;7376666;19;19926;-68
2023/07/14 08:50:08;;;;;;;5.90;3.60;;;;;;;20.21;61.81;101639.25;7380634;19;19926;-68
2023/07/14 08:52:39;;;;;;;3.65;2.10;;;;;;;20.38;61.19;101639.56;7376477;19;19919;-68
2023/07/14 08:55:15;;;;;;;8.02;4.40;;;;;;;20.31;60.69;101639.63;7378513;19;19921;-69
2023/07/14 08:57:47;;;;;;;2.85;2.08;;;;;;;20.27;60.35;101643.00;7379975;19;19926;-68
2023/07/14 09:00:19;;;;;;;;;;;;;;;20.13;59.78;101633.22;7376115;19;19952;-66
2023/07/14 09:03:03;;;;;;;5.60;2.40;;;;;;;20.33;59.99;101631.19;7382716;19;19986;-66
2023/07/14 09:05:34;;;;;;;5.70;2.35;;;;;;;20.46;59.51;101643.94;7345370;19;19930;-66
2023/07/14 09:08:03;;;;;;;2.90;1.95;;;;;;;20.47;59.20;101638.25;7341794;19;20600;-67
2023/07/14 09:10:38;;;;;;;4.85;2.90;;;;;;;20.55;58.75;101635.22;7338485;19;19918;-67
2023/07/14 09:13:16;;;;;;;7.68;3.03;;;;;;;20.75;58.47;101635.06;7343564;19;19934;-67
2023/07/14 09:15:45;;;;;;;;;;;;;;;20.71;56.54;101629.16;7351339;19;19926;-67
2023/07/14 09:18:41;;;;;;;5.43;1.88;;;;;;;20.67;56.18;101627.94;7342937;19;22297;-67
2023/07/14 09:21:18;;;;;;;7.30;2.78;;;;;;;20.62;57.37;101625.03;7342491;19;19915;-67
2023/07/14 09:24:07;;;;;;;;;;;;;;;20.68;57.36;101621.41;7340438;19;19925;-67
2023/07/14 09:26:41;;;;;;;5.75;2.65;;;;;;;20.83;56.64;101627.38;7339795;19;19951;-67
2023/07/14 09:29:16;;;;;;;3.75;2.20;;;;;;;20.92;57.06;101621.59;7340001;19;19929;-67
2023/07/14 09:31:51;;;;;;;4.97;2.25;;;;;;;20.89;56.86;101619.28;7342859;19;19943;-67
2023/07/14 09:34:28;;;;;;;3.55;2.20;;;;;;;20.77;56.53;101627.44;7366838;19;19990;-66
2023/07/14 09:36:58;;;;;;;3.17;2.25;;;;;;;20.80;58.37;101625.06;7380147;19;19929;-67
2023/07/14 09:39:35;;;;;;;3.60;2.45;;;;;;;20.91;57.77;101625.41;7378732;19;19935;-67
2023/07/14 09:42:07;;;;;;;8.27;2.60;;;;;;;20.88;57.59;101621.22;7377836;19;19918;-68
2023/07/14 09:44:37;;;;;;;5.50;2.75;;;;;;;20.84;57.34;101618.06;7376405;19;19914;-68
2023/07/14 09:47:08;;;;;;;4.72;2.70;;;;;;;20.82;57.46;101617.47;7379664;19;20004;-67
2023/07/14 09:49:43;;;;;;;6.57;2.83;;;;;;;20.90;55.95;101620.97;7376086;19;19944;-67
2023/07/14 09:52:15;;;;;;;5.63;2.70;;;;;;;20.82;57.19;101611.16;7378724;19;19923;-67
2023/07/14 09:54:51;;;;;;;6.40;3.40;;;;;;;20.75;57.81;101613.94;7375368;19;19918;-68
2023/07/14 09:57:23;;;;;;;4.95;3.17;;;;;;;20.70;58.53;101615.72;7377517;19;19962;-67
2023/07/14 09:59:56;;;;;;;6.60;2.55;;;;;;;20.63;58.22;101610.28;7373666;19;19922;-67
2023/07/14 10:02:31;;;;;;;6.10;2.88;;;;;;;20.61;57.62;101597.91;7376876;19;19926;-67
2023/07/14 10:05:25;;;;;;;6.38;2.95;;;;;;;20.74;56.82;101595.88;7375500;19;19919;-68
2023/07/14 10:07:54;;;;;;;3.95;2.25;;;;;;;20.92;55.70;101599.69;7378882;19;19926;-67
2023/07/14 10:10:26;;;;;;;3.95;2.45;;;;;;;21.13;54.72;101599.28;7374278;19;19932;-68
2023/07/14 10:12:55;;;;;;;5.70;2.40;;;;;;;21.31;53.54;101591.03;7377817;19;19953;-67
2023/07/14 10:15:33;;;;;;;5.75;2.33;;;;;;;21.51;52.12;101590.78;7380657;19;20321;-67
2023/07/14 10:18:05;;;;;;;6.22;3.60;;;;;;;21.68;52.81;101584.41;7378207;19;19918;-67
2023/07/14 10:20:36;;;;;;;;;;;;;;;21.77;51.46;101573.94;7380448;19;19930;-68
2023/07/14 10:23:05;;;;;;;3.30;2.25;;;;;;;21.85;52.68;101578.25;7382889;19;19926;-68
2023/07/14 10:25:34;;;;;;;4.97;2.40;;;;;;;21.85;52.98;101570.84;7380585;19;19926;-68
2023/07/14 10:28:15;;;;;;;4.22;2.30;;;;;;;21.97;52.04;101574.50;7384404;19;20556;-68
2023/07/14 10:31:02;;;;;;;3.45;1.70;;;;;;;21.94;51.64;101564.00;7382204;19;21720;-69
2023/07/14 10:33:43;;;;;;;6.13;2.67;;;;;;;22.05;51.77;101576.06;7383947;19;19927;-67
2023/07/14 10:36:18;;;;;;;23.60;13.60;;;;;;;21.94;52.43;101574.97;7386237;19;19929;-67
2023/07/14 10:38:53;;;;;;;4.57;2.15;;;;;;;21.88;52.86;101575.03;7381831;19;19933;-68
2023/07/14 10:41:24;;;;;;;4.13;2.45;;;;;;;21.79;53.51;101584.69;7379027;19;19959;-67
2023/07/14 10:43:56;;;;;;;;;;;;;;;21.43;52.43;101580.97;7384935;19;19931;-67
2023/07/14 10:46:30;;;;;;;8.35;5.40;;;;;;;21.35;53.63;101581.28;7382970;19;20379;-68
2023/07/14 10:49:05;;;;;;;4.32;3.15;;;;;;;21.27;53.63;101587.06;7382257;19;19965;-68
2023/07/14 10:51:43;;;;;;;4.88;2.42;;;;;;;21.23;53.08;101575.72;7383996;19;19919;-67
2023/07/14 10:54:18;;;;;;;4.80;2.45;;;;;;;21.20;53.92;101573.44;7381340;19;19986;-66
2023/07/14 10:56:50;;;;;;;6.30;3.17;;;;;;;21.14;54.36;101574.34;7383456;19;19929;-68
2023/07/14 10:59:25;;;;;;;3.95;2.53;;;;;;;21.13;54.23;101569.97;7382128;19;19955;-67
2023/07/14 11:02:01;;;;;;;3.70;2.10;;;;;;;21.16;54.96;101565.91;7383283;19;19919;-67
2023/07/14 11:04:34;;;;;;;6.03;3.40;;;;;;;21.36;54.10;101561.00;7383447;19;19918;-67
2023/07/14 11:07:08;;;;;;;3.63;2.80;;;;;;;21.50;53.00;101568.00;7383576;19;19930;-67
2023/07/14 11:09:37;;;;;;;7.25;2.30;;;;;;;21.60;53.61;101564.69;7380304;19;19927;-68
2023/07/14 11:12:18;;;;;;;4.43;2.80;;;;;;;22.02;54.00;101562.81;7382082;19;19922;-69
2023/07/14 11:14:53;;;;;;;6.03;3.75;;;;;;;22.29;51.29;101544.00;7385073;19;20521;-69
2023/07/14 11:17:31;;;;;;;5.85;2.28;;;;;;;22.24;51.75;101543.88;7384783;19;19930;-68
2023/07/14 11:20:15;;;;;;;4.65;2.30;;;;;;;22.33;49.87;101535.06;7381298;19;20304;-69
2023/07/14 11:23:05;;;;;;;4.18;2.28;;;;;;;22.74;47.56;101541.53;7383213;19;19919;-69
2023/07/14 11:25:41;;;;;;;4.38;1.92;;;;;;;23.05;47.19;101543.81;7382213;19;19922;-69
2023/07/14 11:28:27;;;;;;;6.72;2.70;;;;;;;23.13;46.12;101539.84;7384294;19;20023;-68
2023/07/14 11:30:59;;;;;;;3.42;1.73;;;;;;;22.79;48.05;101536.94;7382989;19;19922;-67
2023/07/14 11:33:36;;;;;;;3.97;2.00;;;;;;;22.44;47.68;101536.94;7380660;19;19926;-68
2023/07/14 11:36:10;;;;;;;3.30;1.92;;;;;;;22.17;49.47;101546.75;7385974;19;19939;-68
2023/07/14 11:38:47;;;;;;;5.28;2.00;;;;;;;22.05;50.04;101534.91;7382167;19;20313;-68
2023/07/14 11:41:17;;;;;;;5.30;2.17;;;;;;;22.01;50.48;101531.78;7379712;19;19986;-68
2023/07/14 11:43:47;;;;;;;5.32;2.50;;;;;;;21.97;50.51;101538.00;7381430;19;19922;-67
2023/07/14 11:46:20;;;;;;;3.70;2.20;;;;;;;22.00;48.94;101534.78;7383037;19;21024;-67